Furenas — OZ2085 — position and weather

sailwx.info

Track history (hours):
 
Tides and Currents Weather Stations Pressure Air Temp Water Temp Dewpoint Dewpoint Depression Visibility Wind Speed Wind Dir Waves Ship Positions

Furenas

Last reported at 2014-Oct-25 04:33 UTC. Time now 2014-Oct-25 05:36 UTC.
Position N 58°19' E 011°20'.

Length 137 m; draft 6 m.

Type: Tanker. MMSI: 231734000.

Date/timePositionNaut miles runAvg speedWind from/ knotsBaromVisibWave heightAir tempDewpointWater temp
2014-Oct-25 04:33N 58°19' E 011°20'1211.7
2014-Oct-25 03:33N 58°11' E 011°03'1212.3
2014-Oct-25 02:33N 58°04' E 010°44'1212.2
2014-Oct-25 01:33N 57°57' E 010°26'1312.3
2014-Oct-25 00:32N 57°49' E 010°07'2912.1
2014-Oct-24 22:08N 57°32' E 009°23'712.0
2014-Oct-24 21:33N 57°28' E 009°12'1212.1
2014-Oct-24 20:32N 57°21' E 008°53'1212.2
2014-Oct-24 19:32N 57°14' E 008°35'1212.1
2014-Oct-24 18:33N 57°06' E 008°19'11312.2
2014-Oct-24 09:21N 55°30' E 006°32'7110.4
2014-Oct-24 02:33N 54°30' E 005°27'1211.9
2014-Oct-24 01:33N 54°21' E 005°15'1312.0
2014-Oct-24 00:29N 54°11' E 005°01'1111.7
2014-Oct-23 23:33N 54°00' E 004°55'1312.2
2014-Oct-23 22:31N 53°48' E 004°53'1312.2
2014-Oct-23 21:28N 53°35' E 004°49'1212.4
2014-Oct-23 20:32N 53°25' E 004°42'5413.7
2014-Oct-23 16:33N 52°34' E 004°07'1312.5
2014-Oct-23 15:33N 52°29' E 004°26'7 6.7
2014-Oct-23 14:33N 52°28' E 004°37'4 3.8
2014-Oct-23 13:33N 52°26' E 004°42'3 3.1
2014-Oct-23 12:31N 52°25' E 004°47'0 0.0
2014-Oct-22 19:33N 52°25' E 004°47'3 3.1
2014-Oct-22 18:33N 52°26' E 004°42'4 3.9
2014-Oct-22 17:33N 52°28' E 004°37'8 7.7
2014-Oct-22 16:33N 52°29' E 004°24'3 3.2
2014-Oct-22 15:33N 52°28' E 004°19'2 1.9
2014-Oct-22 14:33N 52°28' E 004°22'7 6.5
2014-Oct-22 13:33N 52°29' E 004°12'9 8.9
2014-Oct-22 12:30N 52°37' E 004°03'1 0.1
2014-Oct-21 21:26N 52°38' E 004°03'3 3.3
2014-Oct-21 20:32N 52°41' E 004°01'18 8.9
2014-Oct-21 18:33N 52°59' E 004°02'7 7.3
2014-Oct-21 17:33N 53°04' E 004°11'63 8.6
2014-Oct-21 10:13N 54°02' E 004°51'  
2014-Oct-16 07:13N 59°23' W 003°40'15 9.3
2014-Oct-16 05:33N 59°12' W 004°02'9 9.5
2014-Oct-16 04:33N 59°06' W 004°16'10 9.5
2014-Oct-16 03:31N 58°59' W 004°30'5310.1
2014-Oct-15 22:16N 58°18' W 005°34'  
Track history (hours):
 
Tides and Currents Weather Stations Pressure Air Temp Water Temp Dewpoint Dewpoint Depression Visibility Wind Speed Wind Dir Waves Ship Positions

Furenas

Last reported at 2014-Oct-25 04:33 UTC. Time now 2014-Oct-25 05:36 UTC.
Position N 58°19' E 011°20'.

Length 137 m; draft 6 m.

Type: Tanker. MMSI: 231734000.

Date/timePositionNaut miles runAvg speedWind from/ knotsBaromVisibWave heightAir tempDewpointWater temp
2014-Oct-25 04:33N 58°19' E 011°20'1211.7
2014-Oct-25 03:33N 58°11' E 011°03'1212.3
2014-Oct-25 02:33N 58°04' E 010°44'1212.2
2014-Oct-25 01:33N 57°57' E 010°26'1312.3
2014-Oct-25 00:32N 57°49' E 010°07'2912.1
2014-Oct-24 22:08N 57°32' E 009°23'712.0
2014-Oct-24 21:33N 57°28' E 009°12'1212.1
2014-Oct-24 20:32N 57°21' E 008°53'1212.2
2014-Oct-24 19:32N 57°14' E 008°35'1212.1
2014-Oct-24 18:33N 57°06' E 008°19'11312.2
2014-Oct-24 09:21N 55°30' E 006°32'7110.4
2014-Oct-24 02:33N 54°30' E 005°27'1211.9
2014-Oct-24 01:33N 54°21' E 005°15'1312.0
2014-Oct-24 00:29N 54°11' E 005°01'1111.7
2014-Oct-23 23:33N 54°00' E 004°55'1312.2
2014-Oct-23 22:31N 53°48' E 004°53'1312.2
2014-Oct-23 21:28N 53°35' E 004°49'1212.4
2014-Oct-23 20:32N 53°25' E 004°42'5413.7
2014-Oct-23 16:33N 52°34' E 004°07'1312.5
2014-Oct-23 15:33N 52°29' E 004°26'7 6.7
2014-Oct-23 14:33N 52°28' E 004°37'4 3.8
2014-Oct-23 13:33N 52°26' E 004°42'3 3.1
2014-Oct-23 12:31N 52°25' E 004°47'0 0.0
2014-Oct-22 19:33N 52°25' E 004°47'3 3.1
2014-Oct-22 18:33N 52°26' E 004°42'4 3.9
2014-Oct-22 17:33N 52°28' E 004°37'8 7.7
2014-Oct-22 16:33N 52°29' E 004°24'3 3.2
2014-Oct-22 15:33N 52°28' E 004°19'2 1.9
2014-Oct-22 14:33N 52°28' E 004°22'7 6.5
2014-Oct-22 13:33N 52°29' E 004°12'9 8.9
2014-Oct-22 12:30N 52°37' E 004°03'1 0.1
2014-Oct-21 21:26N 52°38' E 004°03'3 3.3
2014-Oct-21 20:32N 52°41' E 004°01'18 8.9
2014-Oct-21 18:33N 52°59' E 004°02'7 7.3
2014-Oct-21 17:33N 53°04' E 004°11'63 8.6
2014-Oct-21 10:13N 54°02' E 004°51'  
2014-Oct-16 07:13N 59°23' W 003°40'15 9.3
2014-Oct-16 05:33N 59°12' W 004°02'9 9.5
2014-Oct-16 04:33N 59°06' W 004°16'10 9.5
2014-Oct-16 03:31N 58°59' W 004°30'5310.1
2014-Oct-15 22:16N 58°18' W 005°34'  

Dump ship's entire track history